Time;durP1;ratioP1;P1;durP2;ratioP2;P2;SDS_P1;SDS_P2;PMS_P1;PMS_P2;Temp;Humidity;BMP_temperature;BMP_pressure;BME280_temperature;BME280_humidity;BME280_pressure;Samples;Min_cycle;Max_cycle;Signal;HPM_P1;HPM_P2
2021/01/04 00:02:22;;;;;;;2.10;1.90;;;0.80;99.90;;;;;;5121718;28;20405;-58
2021/01/04 00:05:23;;;;;;;3.47;3.00;;;0.80;99.90;;;;;;5122142;28;20181;-58
2021/01/04 00:08:23;;;;;;;2.55;1.88;;;0.90;99.90;;;;;;5122115;28;20187;-59
2021/01/04 00:11:26;;;;;;;5.00;3.72;;;0.90;99.90;;;;;;5121954;28;20232;-59
2021/01/04 00:14:05;;;;;;;3.15;2.60;;;0.90;99.90;;;;;;5121260;28;20174;-58
2021/01/04 00:16:43;;;;;;;2.92;2.10;;;0.90;99.90;;;;;;5122369;28;20179;-58
2021/01/04 00:19:17;;;;;;;2.55;2.00;;;0.90;99.90;;;;;;5121846;28;20227;-55
2021/01/04 00:21:51;;;;;;;4.03;3.58;;;0.90;99.90;;;;;;5121377;28;20175;-58
2021/01/04 00:24:27;;;;;;;4.68;4.28;;;0.90;99.90;;;;;;5121781;28;20251;-58
2021/01/04 00:27:00;;;;;;;2.80;2.50;;;0.90;99.90;;;;;;5120773;28;20745;-56
2021/01/04 00:29:29;;;;;;;5.68;2.83;;;0.90;99.90;;;;;;5122316;28;20220;-59
2021/01/04 00:32:00;;;;;;;4.65;3.90;;;0.90;99.90;;;;;;5121639;28;20191;-58
2021/01/04 00:34:38;;;;;;;7.75;3.90;;;0.90;99.90;;;;;;5120734;28;20650;-58
2021/01/04 00:37:46;;;;;;;3.05;2.75;;;0.90;99.90;;;;;;5120752;28;20189;-55
2021/01/04 00:40:20;;;;;;;5.47;3.10;;;0.90;99.90;;;;;;5119566;28;20202;-57
2021/01/04 00:43:06;;;;;;;2.85;2.63;;;0.90;99.90;;;;;;5120647;28;20591;-58
2021/01/04 00:45:39;;;;;;;6.28;3.80;;;0.90;99.90;;;;;;5102615;28;20264;-59
2021/01/04 00:48:14;;;;;;;3.50;3.13;;;0.90;99.90;;;;;;5120281;28;20171;-59
2021/01/04 00:51:07;;;;;;;7.18;2.40;;;0.90;99.90;;;;;;5120369;28;20210;-58
2021/01/04 00:53:38;;;;;;;6.93;4.95;;;0.90;99.90;;;;;;5122438;28;20190;-57
2021/01/04 00:56:39;;;;;;;3.28;2.97;;;0.90;99.90;;;;;;5122032;28;20269;-59
2021/01/04 00:59:30;;;;;;;4.35;3.72;;;0.90;99.90;;;;;;5086909;28;20650;-59
2021/01/04 01:02:32;;;;;;;7.05;3.75;;;0.90;99.90;;;;;;5110264;28;20202;-57
2021/01/04 01:05:10;;;;;;;4.68;3.08;;;0.90;99.90;;;;;;5118780;28;20228;-57
2021/01/04 01:08:13;;;;;;;3.55;3.00;;;0.80;99.90;;;;;;5120988;28;20218;-54
2021/01/04 01:10:45;;;;;;;6.18;3.28;;;0.90;99.90;;;;;;5119808;28;20713;-57
2021/01/04 01:13:44;;;;;;;3.13;2.80;;;0.90;99.90;;;;;;5120693;28;20175;-56
2021/01/04 01:16:59;;;;;;;5.07;3.30;;;0.90;99.90;;;;;;5120082;28;20178;-58
2021/01/04 01:19:32;;;;;;;3.45;2.55;;;0.90;99.90;;;;;;5043424;28;20216;-51
2021/01/04 01:22:01;;;;;;;7.25;1.90;;;0.90;99.90;;;;;;5057986;28;20204;-53
2021/01/04 01:24:29;;;;;;;5.82;4.50;;;0.80;99.90;;;;;;5089901;28;20205;-57
2021/01/04 01:27:30;;;;;;;5.07;4.15;;;0.90;99.90;;;;;;5102555;28;20190;-58
2021/01/04 01:30:33;;;;;;;2.78;2.58;;;0.90;99.90;;;;;;5120924;28;20237;-57
2021/01/04 01:33:14;;;;;;;4.72;4.15;;;0.90;99.90;;;;;;5121507;28;20201;-55
2021/01/04 01:35:52;;;;;;;3.58;3.00;;;0.90;99.90;;;;;;5121243;28;20190;-56
2021/01/04 01:38:45;;;;;;;4.25;3.00;;;0.90;99.90;;;;;;5121610;28;20197;-56
2021/01/04 01:41:27;;;;;;;3.55;2.25;;;0.90;99.90;;;;;;5121131;28;20213;-58
2021/01/04 01:44:03;;;;;;;2.88;2.08;;;0.90;99.90;;;;;;5102416;28;20647;-57
2021/01/04 01:46:36;;;;;;;6.20;3.67;;;0.90;99.90;;;;;;5119814;28;20195;-57
2021/01/04 01:49:14;;;;;;;5.45;4.88;;;0.90;99.90;;;;;;5121015;28;20201;-59
2021/01/04 01:51:59;;;;;;;4.05;3.60;;;0.90;99.90;;;;;;5122082;28;20178;-54
2021/01/04 01:54:42;;;;;;;2.55;2.33;;;0.90;99.90;;;;;;5122655;28;20182;-55
2021/01/04 01:57:24;;;;;;;6.78;4.65;;;0.90;99.90;;;;;;5121752;28;20171;-56
2021/01/04 02:00:06;;;;;;;4.40;2.47;;;0.90;99.90;;;;;;5122122;28;20205;-57
2021/01/04 02:02:41;;;;;;;2.13;1.75;;;0.90;99.90;;;;;;5121431;28;20234;-58
2021/01/04 02:05:15;;;;;;;4.53;3.00;;;0.90;99.90;;;;;;5122204;28;20177;-58
2021/01/04 02:07:48;;;;;;;4.07;2.40;;;0.90;99.90;;;;;;5121670;28;20313;-58
2021/01/04 02:10:19;;;;;;;4.35;3.40;;;0.90;99.90;;;;;;5121788;28;20226;-57
2021/01/04 02:12:52;;;;;;;3.28;2.80;;;0.90;99.90;;;;;;5120171;28;20175;-57
2021/01/04 02:15:24;;;;;;;2.83;2.55;;;0.90;99.90;;;;;;5102017;28;20217;-57
2021/01/04 02:18:02;;;;;;;5.88;4.13;;;0.90;99.90;;;;;;5121296;28;20261;-56
2021/01/04 02:21:03;;;;;;;4.75;2.67;;;0.90;99.90;;;;;;5120964;28;20222;-58
2021/01/04 02:23:44;;;;;;;4.35;2.83;;;0.90;99.90;;;;;;5122948;28;20244;-55
2021/01/04 02:26:19;;;;;;;2.40;2.20;;;0.90;99.90;;;;;;5121978;28;20592;-59
2021/01/04 02:28:58;;;;;;;3.70;2.50;;;0.90;99.90;;;;;;5121395;28;20206;-58
2021/01/04 02:31:25;;;;;;;2.90;2.50;;;0.90;99.90;;;;;;5121623;28;20213;-57
2021/01/04 02:33:53;;;;;;;5.13;3.72;;;0.90;99.90;;;;;;5122302;28;20179;-56
2021/01/04 02:36:22;;;;;;;4.80;2.90;;;0.90;99.90;;;;;;5121806;28;20179;-55
2021/01/04 02:39:00;;;;;;;4.28;2.90;;;0.90;99.90;;;;;;5101342;28;20191;-57
2021/01/04 02:41:56;;;;;;;8.63;7.68;;;0.90;99.90;;;;;;5119726;28;20203;-56
2021/01/04 02:44:26;;;;;;;3.33;3.03;;;0.90;99.90;;;;;;5120692;28;20187;-58
2021/01/04 02:53:07;;;;;;;3.70;2.33;;;1.00;99.90;;;;;;4430785;26;20214;-48
2021/01/04 02:55:43;;;;;;;15.27;8.20;;;1.00;99.90;;;;;;5116807;28;20171;-51
2021/01/04 02:58:23;;;;;;;3.33;1.73;;;1.00;99.90;;;;;;5116886;28;20174;-51
2021/01/04 03:01:00;;;;;;;3.25;1.98;;;1.00;99.90;;;;;;5116719;28;20221;-52
2021/01/04 03:03:29;;;;;;;10.73;6.25;;;1.00;99.90;;;;;;5116685;28;20220;-53
2021/01/04 03:05:59;;;;;;;3.92;2.40;;;1.00;99.90;;;;;;5116305;28;20186;-54
2021/01/04 03:08:27;;;;;;;9.68;4.80;;;1.00;99.90;;;;;;5116107;28;20175;-54
2021/01/04 03:10:54;;;;;;;1.35;1.25;;;1.00;99.90;;;;;;5115750;28;20271;-49
2021/01/04 03:13:40;;;;;;;3.97;1.95;;;1.00;99.90;;;;;;5116174;28;20639;-53
2021/01/04 03:16:15;;;;;;;2.75;2.00;;;1.00;99.90;;;;;;5115851;28;20198;-55
2021/01/04 03:18:49;;;;;;;5.32;2.50;;;0.90;99.90;;;;;;5115960;28;20193;-57
2021/01/04 03:21:18;;;;;;;2.90;2.63;;;1.00;99.90;;;;;;5115614;28;20206;-51
2021/01/04 03:23:47;;;;;;;2.55;1.52;;;1.00;99.90;;;;;;5115483;28;20241;-54
2021/01/04 03:26:20;;;;;;;4.90;2.42;;;1.00;99.90;;;;;;5115220;28;20175;-55
2021/01/04 03:28:48;;;;;;;2.90;2.63;;;1.00;99.90;;;;;;5115321;28;20522;-52
2021/01/04 03:31:15;;;;;;;2.28;1.83;;;1.00;99.90;;;;;;5114929;28;20267;-57
2021/01/04 03:33:42;;;;;;;3.17;2.25;;;1.00;99.90;;;;;;5115246;28;20536;-49
2021/01/04 03:36:10;;;;;;;3.30;2.17;;;1.00;99.90;;;;;;5115183;28;20175;-53
2021/01/04 03:38:37;;;;;;;2.83;2.38;;;1.00;99.90;;;;;;5115306;28;20647;-49
2021/01/04 03:41:05;;;;;;;3.28;2.38;;;1.00;99.90;;;;;;5115173;28;20214;-53
2021/01/04 03:43:33;;;;;;;3.30;2.05;;;1.00;99.90;;;;;;5114771;28;20244;-48
2021/01/04 03:46:01;;;;;;;2.60;2.50;;;1.00;99.90;;;;;;5114905;28;20178;-51
2021/01/04 03:48:29;;;;;;;3.47;2.60;;;1.00;99.90;;;;;;5115151;28;20224;-52
2021/01/04 03:50:56;;;;;;;3.45;2.40;;;1.00;99.90;;;;;;5115512;27;20215;-50
2021/01/04 03:53:23;;;;;;;3.50;3.20;;;1.00;99.90;;;;;;5135751;27;20252;-54
2021/01/04 03:55:50;;;;;;;2.45;1.58;;;1.00;99.90;;;;;;5135459;27;20212;-55
2021/01/04 03:58:17;;;;;;;4.65;3.25;;;1.00;99.90;;;;;;5135418;27;20197;-52
2021/01/04 04:00:44;;;;;;;4.53;2.30;;;1.00;99.90;;;;;;5135436;27;20194;-53
2021/01/04 04:03:12;;;;;;;2.40;2.00;;;1.00;99.90;;;;;;5134185;27;20175;-54
2021/01/04 04:05:39;;;;;;;3.80;2.63;;;1.00;99.90;;;;;;5135097;27;20250;-52
2021/01/04 04:08:06;;;;;;;4.47;2.65;;;1.00;99.90;;;;;;5134991;27;20261;-53
2021/01/04 04:10:34;;;;;;;2.13;1.98;;;1.00;99.90;;;;;;5134655;27;20275;-49
2021/01/04 04:13:01;;;;;;;2.35;2.10;;;1.00;99.90;;;;;;5135068;27;20174;-52
2021/01/04 04:15:28;;;;;;;5.65;3.00;;;1.00;99.90;;;;;;5135423;27;20674;-50
2021/01/04 04:17:55;;;;;;;5.13;3.72;;;1.00;99.90;;;;;;5134379;27;20204;-50
2021/01/04 04:20:25;;;;;;;3.15;1.65;;;1.00;99.90;;;;;;5134508;27;20213;-51
2021/01/04 04:22:54;;;;;;;3.63;2.30;;;1.00;99.90;;;;;;5134592;27;20170;-51
2021/01/04 04:25:23;;;;;;;2.58;2.30;;;1.00;99.90;;;;;;5134736;27;20166;-51
2021/01/04 04:27:50;;;;;;;2.90;2.70;;;1.00;99.90;;;;;;5134354;27;20178;-52
2021/01/04 04:30:22;;;;;;;1.90;1.70;;;1.00;99.90;;;;;;5133894;27;20221;-48
2021/01/04 04:32:50;;;;;;;4.63;2.17;;;1.00;99.90;;;;;;5134245;27;20634;-53
2021/01/04 04:35:17;;;;;;;3.97;1.75;;;1.00;99.90;;;;;;5134123;27;20273;-49
2021/01/04 04:37:45;;;;;;;3.53;2.08;;;1.00;99.90;;;;;;5134104;27;20193;-52
2021/01/04 04:40:17;;;;;;;4.35;2.17;;;1.00;99.90;;;;;;5134062;27;20277;-50
2021/01/04 04:42:45;;;;;;;3.58;2.05;;;1.00;99.90;;;;;;5134401;27;20178;-50
2021/01/04 04:45:16;;;;;;;2.08;1.85;;;1.00;99.90;;;;;;5134148;27;20250;-51
2021/01/04 04:48:28;;;;;;;3.40;2.97;;;1.00;99.90;;;;;;5133909;27;20166;-49
2021/01/04 04:51:20;;;;;;;4.03;2.83;;;1.00;99.90;;;;;;5133773;27;20630;-49
2021/01/04 04:54:01;;;;;;;1.55;1.27;;;0.90;99.90;;;;;;5133782;27;20197;-50
2021/01/04 04:56:54;;;;;;;4.13;2.30;;;1.00;99.90;;;;;;5133790;27;20170;-49
2021/01/04 04:59:31;;;;;;;1.00;0.88;;;0.90;99.90;;;;;;5133461;27;20591;-50
2021/01/04 05:02:05;;;;;;;3.42;2.45;;;0.90;99.90;;;;;;5133741;27;20564;-47
2021/01/04 05:05:06;;;;;;;3.60;2.17;;;0.90;99.90;;;;;;5133711;27;20177;-54
2021/01/04 05:07:45;;;;;;;1.38;1.15;;;0.90;99.90;;;;;;5068588;27;20700;-54
2021/01/04 05:10:15;;;;;;;2.92;2.63;;;0.90;99.90;;;;;;5115669;27;20229;-55
2021/01/04 05:12:48;;;;;;;3.72;3.28;;;0.90;99.90;;;;;;5134327;27;20171;-51
2021/01/04 05:15:35;;;;;;;1.55;1.45;;;0.90;99.90;;;;;;5134126;27;20178;-53
2021/01/04 05:18:24;;;;;;;1.55;1.42;;;0.90;99.90;;;;;;5134708;27;20275;-55
2021/01/04 05:21:25;;;;;;;2.33;2.13;;;0.80;99.90;;;;;;5134108;27;20686;-53
2021/01/04 05:24:18;;;;;;;3.33;3.00;;;0.90;99.90;;;;;;5134180;27;20169;-52
2021/01/04 05:27:10;;;;;;;3.60;2.75;;;0.90;99.90;;;;;;5134027;27;20177;-56
2021/01/04 05:30:13;;;;;;;2.50;1.70;;;0.80;99.90;;;;;;5133873;27;20230;-55
2021/01/04 05:33:03;;;;;;;1.85;1.65;;;0.80;99.90;;;;;;5115639;27;20182;-53
2021/01/04 05:35:33;;;;;;;5.25;2.85;;;0.80;99.90;;;;;;5134287;27;20181;-49
2021/01/04 05:38:08;;;;;;;2.65;1.85;;;0.80;99.90;;;;;;5134516;27;20188;-54
2021/01/04 05:41:07;;;;;;;4.20;3.20;;;0.80;99.90;;;;;;5115369;28;20235;-50
2021/01/04 05:43:47;;;;;;;3.13;2.83;;;0.80;99.90;;;;;;5134034;27;20722;-51
2021/01/04 05:46:20;;;;;;;2.30;2.03;;;0.80;99.90;;;;;;5134036;28;20170;-52
2021/01/04 05:48:58;;;;;;;3.58;2.30;;;0.80;99.90;;;;;;5134555;28;20185;-52
2021/01/04 05:51:30;;;;;;;3.90;2.60;;;0.80;99.90;;;;;;5134491;28;20210;-54
2021/01/04 05:53:58;;;;;;;4.15;2.67;;;0.80;99.90;;;;;;5134783;28;20167;-51
2021/01/04 05:56:27;;;;;;;3.05;2.10;;;0.80;99.90;;;;;;5133835;28;20647;-50
2021/01/04 05:59:08;;;;;;;2.30;2.10;;;0.70;99.90;;;;;;5133717;28;20190;-50
2021/01/04 06:01:36;;;;;;;2.60;2.05;;;0.70;99.90;;;;;;5133629;28;20173;-55
2021/01/04 06:04:06;;;;;;;2.22;1.40;;;0.70;99.90;;;;;;5134032;28;20209;-49
2021/01/04 06:06:39;;;;;;;2.58;1.70;;;0.70;99.90;;;;;;5133749;28;20181;-55
2021/01/04 06:09:13;;;;;;;3.13;1.90;;;0.70;99.90;;;;;;5133687;28;20516;-51
2021/01/04 06:11:48;;;;;;;2.15;1.67;;;0.70;99.90;;;;;;5133044;28;20166;-52
2021/01/04 06:14:17;;;;;;;2.65;2.20;;;0.70;99.90;;;;;;5133540;28;20180;-55
2021/01/04 06:16:47;;;;;;;2.28;2.08;;;0.70;99.90;;;;;;5133616;28;20536;-52
2021/01/04 06:19:17;;;;;;;4.45;3.55;;;0.80;99.90;;;;;;5133539;28;20177;-53
2021/01/04 06:21:51;;;;;;;3.70;2.85;;;0.80;99.90;;;;;;5133913;28;20182;-52
2021/01/04 06:24:23;;;;;;;3.95;1.90;;;0.70;99.90;;;;;;5133776;27;20796;-48
2021/01/04 06:26:52;;;;;;;2.35;2.15;;;0.70;99.90;;;;;;5136210;27;20740;-50
2021/01/04 06:29:32;;;;;;;6.95;2.50;;;0.80;99.90;;;;;;5137305;27;20182;-54
2021/01/04 06:32:07;;;;;;;3.67;1.50;;;0.80;99.90;;;;;;5137575;27;20201;-54
2021/01/04 06:34:38;;;;;;;3.50;2.65;;;0.70;99.90;;;;;;5137951;27;20184;-54
2021/01/04 06:37:12;;;;;;;4.95;4.53;;;0.80;99.90;;;;;;5137370;27;20265;-52
2021/01/04 06:39:41;;;;;;;3.50;3.03;;;0.70;99.90;;;;;;5137618;27;20220;-51
2021/01/04 06:42:13;;;;;;;4.05;3.75;;;0.70;99.90;;;;;;5137492;27;20178;-55
2021/01/04 06:44:42;;;;;;;2.88;2.33;;;0.70;99.90;;;;;;5137070;27;20257;-51
2021/01/04 06:47:25;;;;;;;4.18;3.15;;;0.70;99.90;;;;;;5118605;27;20190;-54
2021/01/04 06:50:04;;;;;;;4.75;3.30;;;0.70;99.90;;;;;;5136925;27;20213;-52
2021/01/04 06:53:00;;;;;;;3.35;3.05;;;0.70;99.90;;;;;;5137395;27;20193;-52
2021/01/04 06:55:57;;;;;;;2.80;2.60;;;0.70;99.90;;;;;;5136965;27;20261;-49
2021/01/04 06:58:38;;;;;;;4.28;3.88;;;0.70;99.90;;;;;;5136718;27;20266;-52
2021/01/04 07:01:26;;;;;;;6.82;2.08;;;0.70;99.90;;;;;;5136489;27;20674;-55
2021/01/04 07:04:12;;;;;;;3.83;3.08;;;0.70;99.90;;;;;;5136714;27;20175;-52
2021/01/04 07:07:14;;;;;;;3.53;2.08;;;0.70;99.90;;;;;;5136700;27;20174;-55
2021/01/04 07:10:08;;;;;;;2.78;2.53;;;0.70;99.90;;;;;;5136481;27;20250;-52
2021/01/04 07:12:53;;;;;;;3.50;3.30;;;0.70;99.90;;;;;;5136231;27;20186;-56
2021/01/04 07:15:26;;;;;;;6.82;5.80;;;0.70;99.90;;;;;;5136475;27;20177;-53
2021/01/04 07:18:20;;;;;;;8.85;6.68;;;0.70;99.90;;;;;;5135954;27;20174;-48
2021/01/04 07:21:04;;;;;;;6.53;3.65;;;0.70;99.90;;;;;;5135990;27;20607;-53
2021/01/04 07:23:47;;;;;;;5.50;3.25;;;0.70;99.90;;;;;;5135938;27;20177;-53
2021/01/04 07:26:22;;;;;;;4.93;3.92;;;0.70;99.90;;;;;;5136506;27;20174;-52
2021/01/04 07:29:10;;;;;;;6.40;4.60;;;0.70;99.90;;;;;;5136191;27;20182;-55
2021/01/04 07:31:39;;;;;;;5.88;5.38;;;0.70;99.90;;;;;;5136709;27;20194;-53
2021/01/04 07:34:16;;;;;;;9.35;5.68;;;0.70;99.90;;;;;;5136419;27;20181;-54
2021/01/04 07:36:52;;;;;;;4.88;3.05;;;0.80;99.90;;;;;;5135960;27;20177;-50
2021/01/04 07:39:38;;;;;;;2.15;1.98;;;0.80;99.90;;;;;;5136002;27;20178;-52
2021/01/04 07:42:34;;;;;;;3.20;2.05;;;0.80;99.90;;;;;;5117416;27;20273;-54
2021/01/04 07:45:19;;;;;;;7.65;5.40;;;0.80;99.90;;;;;;5135961;27;20171;-51
2021/01/04 07:48:12;;;;;;;3.67;3.17;;;0.80;99.90;;;;;;5135891;27;20652;-49
2021/01/04 07:51:15;;;;;;;6.53;3.75;;;0.80;99.90;;;;;;5135625;27;20206;-54
2021/01/04 07:54:18;;;;;;;7.53;4.18;;;0.80;99.90;;;;;;5135881;27;20182;-53
2021/01/04 07:57:29;;;;;;;4.65;4.30;;;0.80;99.90;;;;;;5135554;27;20231;-51
2021/01/04 08:00:22;;;;;;;2.60;2.30;;;0.90;99.90;;;;;;5135707;27;20198;-53
2021/01/04 08:03:14;;;;;;;2.65;1.80;;;0.90;99.90;;;;;;5094040;27;20617;-52
2021/01/04 08:06:09;;;;;;;3.90;3.05;;;0.90;99.90;;;;;;5118676;27;20206;-51
2021/01/04 08:08:46;;;;;;;3.83;3.47;;;0.90;99.90;;;;;;5135326;27;20627;-49
2021/01/04 08:11:43;;;;;;;6.20;3.53;;;0.90;99.90;;;;;;5134710;27;20217;-54
2021/01/04 08:14:46;;;;;;;9.85;3.33;;;1.00;99.90;;;;;;5133909;27;20189;-48
2021/01/04 08:17:18;;;;;;;4.68;2.53;;;1.00;99.90;;;;;;5116030;27;20189;-51
2021/01/04 08:19:48;;;;;;;3.45;2.92;;;1.00;99.90;;;;;;5134526;27;20206;-54
2021/01/04 08:23:02;;;;;;;3.47;1.65;;;1.00;99.90;;;;;;5134602;27;20186;-48
2021/01/04 08:25:42;;;;;;;2.75;2.55;;;1.00;99.90;;;;;;5051485;28;20228;-49
2021/01/04 08:28:20;;;;;;;3.50;3.17;;;1.10;99.90;;;;;;5104675;27;20194;-53
2021/01/04 08:30:56;;;;;;;2.95;1.90;;;1.10;99.90;;;;;;5134265;27;20205;-51
2021/01/04 08:33:33;;;;;;;6.18;3.88;;;1.20;99.90;;;;;;5134609;27;20537;-48
2021/01/04 08:36:01;;;;;;;6.07;3.58;;;1.20;99.90;;;;;;5133908;27;20238;-54
2021/01/04 08:38:35;;;;;;;8.25;3.55;;;1.20;99.90;;;;;;5115233;27;20194;-51
2021/01/04 08:41:09;;;;;;;7.20;4.95;;;1.20;99.90;;;;;;5134091;27;20212;-51
2021/01/04 08:43:40;;;;;;;6.22;5.30;;;1.10;99.90;;;;;;5134159;27;20176;-53
2021/01/04 08:46:30;;;;;;;4.47;3.70;;;1.10;99.90;;;;;;5140116;22;20275;-52
2021/01/04 08:48:59;;;;;;;10.00;4.97;;;1.10;99.90;;;;;;5112801;28;20179;-56
2021/01/04 08:51:30;;;;;;;2.33;2.13;;;1.10;99.90;;;;;;5111614;28;20213;-54
2021/01/04 08:54:03;;;;;;;3.92;3.15;;;1.10;99.90;;;;;;5092697;28;20191;-53
2021/01/04 08:56:37;;;;;;;4.35;3.05;;;1.20;99.90;;;;;;5092900;28;20171;-55
2021/01/04 08:59:10;;;;;;;7.25;4.60;;;1.20;99.90;;;;;;5092595;28;20176;-59
2021/01/04 09:02:03;;;;;;;8.13;5.43;;;1.20;99.90;;;;;;5092827;28;20660;-52
2021/01/04 09:04:33;;;;;;;3.55;3.25;;;1.20;99.90;;;;;;5084501;28;20218;-56
2021/01/04 09:07:11;;;;;;;8.57;5.53;;;1.20;99.90;;;;;;5092045;28;20178;-58
2021/01/04 09:09:43;;;;;;;7.75;5.07;;;1.20;99.90;;;;;;5092518;28;20309;-53
2021/01/04 09:12:26;;;;;;;5.00;4.50;;;1.20;99.90;;;;;;5092670;28;20701;-58
2021/01/04 09:14:56;;;;;;;4.03;3.70;;;1.20;99.90;;;;;;5094827;28;20195;-52
2021/01/04 09:17:32;;;;;;;3.88;3.58;;;1.20;99.90;;;;;;5112234;28;20186;-53
2021/01/04 09:20:12;;;;;;;4.80;3.38;;;1.20;99.90;;;;;;5113102;28;20239;-51
2021/01/04 09:22:39;;;;;;;4.88;3.55;;;1.20;99.90;;;;;;5112658;28;20263;-57
2021/01/04 09:25:19;;;;;;;2.65;2.42;;;1.20;99.90;;;;;;5112598;28;20560;-53
2021/01/04 09:27:50;;;;;;;5.28;3.85;;;1.20;99.90;;;;;;5112403;28;20194;-57
2021/01/04 09:30:24;;;;;;;3.88;3.25;;;1.30;99.90;;;;;;5094095;28;20576;-55
2021/01/04 09:33:10;;;;;;;5.00;4.18;;;1.30;99.90;;;;;;5112965;28;20625;-56
2021/01/04 09:35:38;;;;;;;4.45;3.60;;;1.30;99.90;;;;;;5094451;28;20243;-52
2021/01/04 09:38:08;;;;;;;5.32;3.30;;;1.30;99.90;;;;;;5113354;28;20619;-56
2021/01/04 09:40:37;;;;;;;5.18;4.78;;;1.30;99.90;;;;;;5093728;28;20614;-58
2021/01/04 09:43:07;;;;;;;4.03;3.65;;;1.30;99.90;;;;;;5092846;28;20279;-54
2021/01/04 09:45:34;;;;;;;5.05;4.55;;;1.30;99.90;;;;;;5095514;28;20194;-54
2021/01/04 09:48:05;;;;;;;8.25;4.38;;;1.30;99.90;;;;;;5112827;28;20175;-54
2021/01/04 09:50:36;;;;;;;6.30;3.50;;;1.40;99.90;;;;;;5112720;28;20689;-57
2021/01/04 09:53:13;;;;;;;5.85;4.00;;;1.40;99.90;;;;;;5124475;28;20186;-57
2021/01/04 09:55:45;;;;;;;5.43;3.15;;;1.50;99.90;;;;;;5133382;28;20197;-54
2021/01/04 09:58:19;;;;;;;3.90;3.22;;;1.40;99.90;;;;;;5132912;28;20198;-55
2021/01/04 10:00:47;;;;;;;2.13;1.90;;;1.30;99.90;;;;;;5134519;27;20201;-56
2021/01/04 10:03:18;;;;;;;3.90;3.42;;;1.20;99.90;;;;;;5137801;27;20219;-58
2021/01/04 10:05:49;;;;;;;2.67;2.15;;;1.20;99.90;;;;;;5135802;27;20185;-57
2021/01/04 10:08:19;;;;;;;6.18;3.00;;;1.30;99.90;;;;;;5136850;27;20182;-58
2021/01/04 10:10:54;;;;;;;7.05;3.58;;;1.40;99.90;;;;;;5136905;27;20206;-55
2021/01/04 10:13:24;;;;;;;8.80;3.47;;;1.30;99.90;;;;;;5137515;27;20178;-59
2021/01/04 10:15:53;;;;;;;6.43;5.78;;;1.30;99.90;;;;;;5137542;27;20257;-55
2021/01/04 10:18:34;;;;;;;7.13;4.35;;;1.30;99.90;;;;;;5136497;27;20189;-54
2021/01/04 10:21:02;;;;;;;4.47;3.90;;;1.30;99.90;;;;;;5136864;27;20202;-53
2021/01/04 10:23:35;;;;;;;6.63;4.25;;;1.30;99.90;;;;;;5137049;27;20192;-55
2021/01/04 10:26:23;;;;;;;7.57;4.75;;;1.40;99.90;;;;;;5136785;27;20221;-56
2021/01/04 10:28:53;;;;;;;5.72;3.40;;;1.30;99.90;;;;;;5136781;27;20174;-57
2021/01/04 10:31:24;;;;;;;4.93;3.50;;;1.30;99.90;;;;;;5117681;27;20221;-59
2021/01/04 10:34:04;;;;;;;3.97;3.67;;;1.40;99.90;;;;;;5138334;27;20185;-57
2021/01/04 10:36:32;;;;;;;4.47;3.72;;;1.50;99.90;;;;;;5138837;27;20256;-56
2021/01/04 10:39:04;;;;;;;4.30;3.55;;;1.50;99.90;;;;;;5139397;27;20650;-55
2021/01/04 10:41:34;;;;;;;6.80;4.63;;;1.50;99.90;;;;;;5140386;27;20178;-55
2021/01/04 10:44:13;;;;;;;7.05;5.03;;;1.50;99.90;;;;;;5138412;27;20174;-57
2021/01/04 10:46:43;;;;;;;4.50;3.28;;;1.60;99.90;;;;;;5138593;27;20280;-57
2021/01/04 10:49:22;;;;;;;9.88;5.47;;;1.50;99.90;;;;;;5137291;27;20197;-57
2021/01/04 10:51:52;;;;;;;6.45;3.83;;;1.50;99.90;;;;;;5136926;27;20205;-54
2021/01/04 10:54:22;;;;;;;15.23;9.35;;;1.50;99.90;;;;;;5135625;27;20194;-57
2021/01/04 10:57:00;;;;;;;12.07;5.43;;;1.40;99.90;;;;;;5135922;27;20174;-57
2021/01/04 10:59:37;;;;;;;6.65;5.95;;;1.30;99.90;;;;;;5136728;27;20720;-58
2021/01/04 11:02:04;;;;;;;9.45;4.32;;;1.30;99.90;;;;;;5115845;27;20647;-56
2021/01/04 11:04:32;;;;;;;7.30;5.00;;;1.30;99.90;;;;;;5115869;28;20187;-56
2021/01/04 11:07:04;;;;;;;6.65;5.25;;;1.30;99.90;;;;;;5115997;27;20206;-54
2021/01/04 11:09:34;;;;;;;5.93;4.38;;;1.20;99.90;;;;;;5116815;28;20297;-59
2021/01/04 11:12:13;;;;;;;13.68;6.28;;;1.30;99.90;;;;;;5117066;28;20635;-56
2021/01/04 11:14:53;;;;;;;15.60;5.38;;;1.30;99.90;;;;;;5118539;28;20175;-58
2021/01/04 11:17:23;;;;;;;11.77;3.10;;;1.30;99.90;;;;;;5118845;27;20229;-54
2021/01/04 11:19:52;;;;;;;6.70;4.50;;;1.30;99.90;;;;;;5132833;27;20710;-53
2021/01/04 11:22:23;;;;;;;9.55;3.75;;;1.30;99.90;;;;;;5115719;28;20526;-53
2021/01/04 11:24:51;;;;;;;4.43;3.17;;;1.30;99.90;;;;;;5115668;28;20220;-54
2021/01/04 11:27:18;;;;;;;8.68;5.10;;;1.30;99.90;;;;;;5115722;28;20211;-57
2021/01/04 11:29:48;;;;;;;6.75;3.55;;;1.30;99.90;;;;;;5115473;28;20297;-59
2021/01/04 11:32:16;;;;;;;5.85;4.22;;;1.20;99.90;;;;;;5115157;28;20198;-57
2021/01/04 11:34:45;;;;;;;7.95;4.20;;;1.20;99.90;;;;;;5115675;28;20194;-55
2021/01/04 11:37:14;;;;;;;4.00;3.30;;;1.10;99.90;;;;;;5115375;28;20190;-55
2021/01/04 11:39:42;;;;;;;6.90;3.10;;;1.20;99.90;;;;;;5115230;28;20214;-58
2021/01/04 11:42:10;;;;;;;4.38;2.90;;;1.10;99.90;;;;;;5124011;27;20635;-57
2021/01/04 11:44:39;;;;;;;7.03;5.38;;;1.10;99.90;;;;;;5135969;27;20175;-58
2021/01/04 11:47:07;;;;;;;6.60;3.22;;;1.10;99.90;;;;;;5136961;27;20243;-56
2021/01/04 11:49:36;;;;;;;6.75;4.40;;;1.20;99.90;;;;;;5137892;27;20207;-56
2021/01/04 11:52:04;;;;;;;8.45;5.68;;;1.20;99.90;;;;;;5135577;27;20255;-57
2021/01/04 11:54:31;;;;;;;6.00;4.57;;;1.10;99.90;;;;;;5136131;27;20201;-58
2021/01/04 11:56:59;;;;;;;8.65;4.35;;;1.10;99.90;;;;;;5135070;27;20214;-53
2021/01/04 11:59:26;;;;;;;9.80;4.25;;;1.20;99.90;;;;;;5135140;27;20205;-55
2021/01/04 12:01:54;;;;;;;9.20;4.50;;;1.20;99.90;;;;;;5136103;27;20650;-55
2021/01/04 12:04:23;;;;;;;8.73;4.43;;;1.20;99.90;;;;;;5135922;27;20343;-57
2021/01/04 12:06:50;;;;;;;6.47;4.57;;;1.20;99.90;;;;;;5124373;27;20187;-57
2021/01/04 12:09:18;;;;;;;10.77;6.45;;;1.30;99.90;;;;;;5127496;27;20596;-55
2021/01/04 12:11:47;;;;;;;7.93;4.47;;;1.20;99.90;;;;;;5114670;28;20689;-56
2021/01/04 12:14:16;;;;;;;14.30;4.63;;;1.20;99.90;;;;;;5115041;28;20651;-57
2021/01/04 12:16:44;;;;;;;7.68;5.97;;;1.20;99.90;;;;;;5114412;28;20175;-55
2021/01/04 12:19:11;;;;;;;9.43;6.10;;;1.20;99.90;;;;;;5130704;27;20186;-58
2021/01/04 12:21:39;;;;;;;8.55;5.00;;;1.30;99.90;;;;;;5134557;27;20170;-56
2021/01/04 12:24:08;;;;;;;9.50;7.15;;;1.20;99.90;;;;;;5134243;27;20178;-55
2021/01/04 12:26:35;;;;;;;18.48;8.30;;;1.20;99.90;;;;;;5135047;27;20544;-55
2021/01/04 12:29:02;;;;;;;6.55;4.75;;;1.20;99.90;;;;;;5135090;27;20257;-56
2021/01/04 12:31:37;;;;;;;7.63;5.70;;;1.20;99.90;;;;;;5136863;27;20209;-57
2021/01/04 12:34:04;;;;;;;8.55;7.32;;;1.20;99.90;;;;;;5134347;27;20623;-57
2021/01/04 12:36:32;;;;;;;11.05;5.72;;;1.20;99.90;;;;;;5134234;27;20640;-58
2021/01/04 12:39:00;;;;;;;12.60;8.25;;;1.20;99.90;;;;;;5116429;27;20204;-55
2021/01/04 12:41:27;;;;;;;9.93;6.68;;;1.20;99.90;;;;;;5134626;27;20236;-52
2021/01/04 12:43:54;;;;;;;12.65;6.32;;;1.20;99.90;;;;;;5134407;27;20182;-55
2021/01/04 12:46:22;;;;;;;7.82;5.85;;;1.10;99.90;;;;;;5116368;27;20213;-57
2021/01/04 12:48:49;;;;;;;10.52;6.22;;;1.20;99.90;;;;;;5113724;28;20191;-56
2021/01/04 12:51:16;;;;;;;7.05;4.20;;;1.20;99.90;;;;;;5113498;28;20268;-56
2021/01/04 12:53:43;;;;;;;16.02;9.13;;;1.20;99.90;;;;;;5113376;28;20175;-56
2021/01/04 12:56:16;;;;;;;6.22;5.57;;;1.10;99.90;;;;;;5113868;28;20271;-57
2021/01/04 12:58:45;;;;;;;8.40;6.13;;;1.10;99.90;;;;;;5113081;28;20700;-59
2021/01/04 13:01:17;;;;;;;10.30;4.63;;;1.10;99.90;;;;;;5113842;28;20702;-56
2021/01/04 13:03:45;;;;;;;4.15;3.50;;;1.10;99.90;;;;;;5113094;28;20273;-58
2021/01/04 13:06:22;;;;;;;7.45;5.40;;;1.10;99.90;;;;;;5112887;28;20197;-53
2021/01/04 13:08:50;;;;;;;7.15;6.32;;;1.10;99.90;;;;;;5116271;27;20256;-58
2021/01/04 13:11:19;;;;;;;10.68;5.32;;;1.10;99.90;;;;;;5124181;27;20202;-57
2021/01/04 13:13:48;;;;;;;6.30;4.60;;;1.10;99.90;;;;;;5113305;28;20220;-56
2021/01/04 13:16:16;;;;;;;5.80;5.15;;;1.10;99.90;;;;;;5112863;28;20254;-56
2021/01/04 13:18:43;;;;;;;7.53;4.40;;;1.10;99.90;;;;;;5133376;27;20193;-55
2021/01/04 13:21:16;;;;;;;7.40;5.38;;;1.10;99.90;;;;;;5133286;27;20209;-57
2021/01/04 13:23:44;;;;;;;11.90;6.35;;;1.00;99.90;;;;;;5132778;27;20651;-55
2021/01/04 13:26:11;;;;;;;12.88;7.88;;;1.00;99.90;;;;;;5133169;27;20545;-54
2021/01/04 13:28:40;;;;;;;7.13;3.88;;;1.00;99.90;;;;;;5133095;27;20239;-55
2021/01/04 13:31:07;;;;;;;7.90;4.00;;;1.00;99.90;;;;;;5133264;27;20202;-55
2021/01/04 13:33:34;;;;;;;15.57;5.47;;;0.90;99.90;;;;;;5133068;27;20562;-56
2021/01/04 13:36:06;;;;;;;6.53;4.57;;;0.90;99.90;;;;;;5132126;27;20186;-52
2021/01/04 13:38:33;;;;;;;3.83;2.97;;;0.90;99.90;;;;;;5132413;27;20194;-57
2021/01/04 13:41:00;;;;;;;14.90;7.90;;;0.90;99.90;;;;;;5124130;27;20208;-58
2021/01/04 13:43:28;;;;;;;6.03;4.47;;;1.00;99.90;;;;;;5133372;27;20170;-55
2021/01/04 13:45:56;;;;;;;8.02;5.63;;;1.00;99.90;;;;;;5133162;27;20186;-55
2021/01/04 13:48:23;;;;;;;7.05;4.25;;;1.00;99.90;;;;;;5133065;27;20194;-54